Terminal Aerodrome Forecast
Issued by NWS

Home | Current Version | Previous Version | Text Only | Print | Product List | Glossary On
Versions: 1 2 3 4 5 6 7 8 9 10 11 12 13
000
FTUS45 KGGW 261730
TAFSDY
TAF
KSDY 261730Z 2618/2718 29008KT P6SM VCSH FEW030 BKN045
     FM262100 30009KT P6SM -SHRA BKN045
     FM270000 34008KT P6SM VCSH BKN060
     FM270600 VRB04KT P6SM BKN050
      AMD LTD TO CLD VIS AND WIND=

USA.gov is the U.S. government's official web portal to all federal, state and local government web resources and services.